createdAt,value
2022-08-05T00:01:54.855Z,21.90
2022-08-05T00:04:36.119Z,21.90
2022-08-05T00:07:27.114Z,21.90
2022-08-05T00:09:52.754Z,21.90
2022-08-05T00:12:24.345Z,21.90
2022-08-05T00:14:52.701Z,21.80
2022-08-05T00:17:21.864Z,21.70
2022-08-05T00:20:01.875Z,21.70
2022-08-05T00:22:31.349Z,21.80
2022-08-05T00:24:59.571Z,21.80
2022-08-05T00:27:36.315Z,21.80
2022-08-05T00:30:11.340Z,21.70
2022-08-05T00:32:40.488Z,21.50
2022-08-05T00:35:10.221Z,21.40
2022-08-05T00:37:52.993Z,21.40
2022-08-05T00:40:27.149Z,21.50
2022-08-05T00:43:00.943Z,21.50
2022-08-05T00:45:42.866Z,21.50
2022-08-05T00:48:13.871Z,21.40
2022-08-05T00:50:46.517Z,21.50
2022-08-05T00:53:44.862Z,21.40
2022-08-05T00:56:05.631Z,21.30
2022-08-05T00:58:38.867Z,21.30
2022-08-05T01:01:12.349Z,21.40
2022-08-05T01:03:41.534Z,21.30
2022-08-05T01:06:15.291Z,21.20
2022-08-05T01:08:44.801Z,21.20
2022-08-05T01:11:22.237Z,21.20
2022-08-05T01:14:15.507Z,21.10
2022-08-05T01:16:52.423Z,21.10
2022-08-05T01:20:01.137Z,21.20
2022-08-05T01:22:43.291Z,21.20
2022-08-05T01:25:53.326Z,21.20
2022-08-05T01:28:34.157Z,21.20
2022-08-05T01:31:11.566Z,21.20
2022-08-05T01:33:49.175Z,21.20
2022-08-05T01:36:27.908Z,21.20
2022-08-05T01:39:00.219Z,21.20
2022-08-05T01:41:35.662Z,21.20
2022-08-05T01:44:09.926Z,21.10
2022-08-05T01:46:46.302Z,21.10
2022-08-05T01:49:24.087Z,21.10
2022-08-05T01:52:01.010Z,21.00
2022-08-05T01:54:34.384Z,21.00
2022-08-05T01:58:13.647Z,21.10
2022-08-05T02:00:12.649Z,21.00
2022-08-05T02:02:54.325Z,21.00
2022-08-05T02:05:28.565Z,21.00
2022-08-05T02:08:00.242Z,21.00
2022-08-05T02:10:35.984Z,20.90
2022-08-05T02:13:15.908Z,20.70
2022-08-05T02:15:51.849Z,20.60
2022-08-05T02:18:30.926Z,20.60
2022-08-05T02:21:14.795Z,20.30
2022-08-05T02:23:49.122Z,20.60
2022-08-05T02:26:26.626Z,20.70
2022-08-05T02:28:58.302Z,20.70
2022-08-05T02:31:34.863Z,20.50
2022-08-05T02:34:09.886Z,20.40
2022-08-05T02:36:43.773Z,20.50
2022-08-05T02:39:14.080Z,20.40
2022-08-05T02:42:01.347Z,20.40
2022-08-05T02:44:33.085Z,20.30
2022-08-05T02:47:06.269Z,20.30
2022-08-05T02:49:40.569Z,20.30
2022-08-05T02:52:29.935Z,20.30
2022-08-05T02:55:01.890Z,20.30
2022-08-05T02:58:11.015Z,20.40
2022-08-05T03:00:25.489Z,20.40
2022-08-05T03:02:59.713Z,20.40
2022-08-05T03:06:54.540Z,20.50
2022-08-05T03:08:26.930Z,20.50
2022-08-05T03:11:41.169Z,20.50
2022-08-05T03:13:52.142Z,20.50
2022-08-05T03:16:32.137Z,20.60
2022-08-05T03:19:12.507Z,20.60
2022-08-05T03:21:48.681Z,20.50
2022-08-05T03:24:27.562Z,20.60
2022-08-05T03:26:59.638Z,20.60
2022-08-05T03:29:45.721Z,20.50
2022-08-05T03:32:19.512Z,20.40
2022-08-05T03:34:50.952Z,20.40
2022-08-05T03:37:22.570Z,20.30
2022-08-05T03:39:59.198Z,20.20
2022-08-05T03:42:32.394Z,20.20
2022-08-05T03:45:21.134Z,20.20
2022-08-05T03:47:50.372Z,20.30
2022-08-05T03:50:21.314Z,20.30
2022-08-05T03:55:50.443Z,20.30
2022-08-05T03:56:10.514Z,20.10
2022-08-05T03:58:45.552Z,19.90
2022-08-05T04:01:16.326Z,19.80
2022-08-05T04:04:05.483Z,19.80
2022-08-05T04:06:47.751Z,19.90
2022-08-05T04:09:25.924Z,19.90
2022-08-05T04:11:56.572Z,19.90
2022-08-05T04:14:29.403Z,19.90
2022-08-05T04:17:00.940Z,19.90
2022-08-05T04:19:31.906Z,19.90
2022-08-05T04:22:08.863Z,19.90
2022-08-05T04:24:44.563Z,19.90
2022-08-05T04:27:33.185Z,19.90
2022-08-05T04:30:11.989Z,19.80
2022-08-05T04:32:40.353Z,19.80
2022-08-05T04:35:19.344Z,19.70
2022-08-05T04:38:01.349Z,19.60
2022-08-05T04:40:35.433Z,19.60
2022-08-05T04:43:04.151Z,19.50
2022-08-05T04:45:48.777Z,19.50
2022-08-05T04:48:27.035Z,19.30
2022-08-05T04:51:02.753Z,19.40
2022-08-05T04:53:40.222Z,19.40
2022-08-05T04:56:32.912Z,19.30
2022-08-05T04:58:58.415Z,19.40
2022-08-05T05:02:05.676Z,19.40
2022-08-05T05:04:15.411Z,19.30
2022-08-05T05:06:49.355Z,19.30
2022-08-05T05:09:22.053Z,19.30
2022-08-05T05:11:55.672Z,19.30
2022-08-05T05:14:31.234Z,19.30
2022-08-05T05:17:00.787Z,19.30
2022-08-05T05:19:37.146Z,19.30
2022-08-05T05:22:23.818Z,19.30
2022-08-05T05:24:57.409Z,19.40
2022-08-05T05:27:44.375Z,19.30
2022-08-05T05:30:29.226Z,19.30
2022-08-05T05:33:09.121Z,19.30
2022-08-05T05:35:46.867Z,19.30
2022-08-05T05:38:22.568Z,19.30
2022-08-05T05:40:57.372Z,19.40
2022-08-05T05:43:54.626Z,19.40
2022-08-05T05:46:17.638Z,19.40
2022-08-05T05:48:48.977Z,19.50
2022-08-05T05:51:22.539Z,19.70
2022-08-05T05:53:57.828Z,19.70
2022-08-05T05:56:33.697Z,19.80
2022-08-05T05:59:05.891Z,19.90
2022-08-05T06:01:38.075Z,20.00
2022-08-05T06:04:11.753Z,20.10
2022-08-05T06:06:42.820Z,20.20
2022-08-05T06:09:17.667Z,20.30
2022-08-05T06:12:02.118Z,20.40
2022-08-05T06:14:31.566Z,20.50
2022-08-05T06:17:02.153Z,20.50
2022-08-05T06:19:56.523Z,20.40
2022-08-05T06:22:33.706Z,20.50
2022-08-05T06:25:25.180Z,20.50
2022-08-05T06:28:10.932Z,20.30
2022-08-05T06:30:41.444Z,20.20
2022-08-05T06:33:10.860Z,20.30
2022-08-05T06:36:08.008Z,20.40
2022-08-05T06:38:36.627Z,20.50
2022-08-05T06:41:07.745Z,20.70
2022-08-05T06:43:57.808Z,20.90
2022-08-05T06:46:29.673Z,20.90
2022-08-05T06:48:59.213Z,21.00
2022-08-05T06:51:30.007Z,21.00
2022-08-05T06:53:59.940Z,21.20
2022-08-05T06:56:28.880Z,21.20
2022-08-05T06:58:58.692Z,21.30
2022-08-05T07:01:32.308Z,21.50
2022-08-05T07:04:03.161Z,21.50
2022-08-05T07:06:31.762Z,21.60
2022-08-05T07:09:03.856Z,21.80
2022-08-05T07:11:37.296Z,21.80
2022-08-05T07:14:30.313Z,21.90
2022-08-05T07:18:00.541Z,21.80
2022-08-05T07:20:34.139Z,21.70
2022-08-05T07:22:39.352Z,21.80
2022-08-05T07:25:54.273Z,22.00
2022-08-05T07:28:07.279Z,22.20
2022-08-05T07:30:41.419Z,22.20
2022-08-05T07:33:15.931Z,22.40
2022-08-05T07:36:02.607Z,22.70
2022-08-05T07:38:43.131Z,22.70
2022-08-05T07:42:09.119Z,22.60
2022-08-05T07:44:18.718Z,22.50
2022-08-05T07:46:50.495Z,22.30
2022-08-05T07:49:19.728Z,22.20
2022-08-05T07:51:52.944Z,22.30
2022-08-05T07:54:31.267Z,22.30
2022-08-05T07:57:41.997Z,22.40
2022-08-05T07:59:51.178Z,22.60
2022-08-05T08:02:30.891Z,22.70
2022-08-05T08:05:15.269Z,22.60
2022-08-05T08:07:59.603Z,22.70
2022-08-05T08:10:30.282Z,23.20
2022-08-05T08:12:59.051Z,23.70
2022-08-05T08:16:33.605Z,24.30
2022-08-05T08:18:20.853Z,24.60
2022-08-05T08:21:02.963Z,25.00
2022-08-05T08:24:02.637Z,25.20
2022-08-05T08:26:26.558Z,25.20
2022-08-05T08:28:59.836Z,25.50
2022-08-05T08:31:44.075Z,26.10
2022-08-05T08:34:14.492Z,26.50
2022-08-05T08:36:48.810Z,26.50
2022-08-05T08:39:19.208Z,26.30
2022-08-05T08:41:59.442Z,26.00
2022-08-05T08:45:22.624Z,26.40
2022-08-05T08:48:06.915Z,26.50
2022-08-05T08:50:31.618Z,26.30
2022-08-05T08:53:11.914Z,26.20
2022-08-05T08:56:04.510Z,26.30
2022-08-05T08:58:43.839Z,26.60
2022-08-05T09:01:18.074Z,26.80
2022-08-05T09:03:54.306Z,27.00
2022-08-05T09:06:29.387Z,26.90
2022-08-05T09:09:01.397Z,26.80
2022-08-05T09:11:50.706Z,26.70
2022-08-05T09:14:57.544Z,26.80
2022-08-05T09:17:11.550Z,26.80
2022-08-05T09:20:02.378Z,26.60
2022-08-05T09:23:09.050Z,26.70
2022-08-05T09:26:00.066Z,26.70
2022-08-05T09:28:31.959Z,26.20
2022-08-05T09:31:22.969Z,26.00
2022-08-05T09:33:56.682Z,26.10
2022-08-05T09:36:27.823Z,26.50
2022-08-05T09:39:18.049Z,26.70
2022-08-05T09:42:01.409Z,26.70
2022-08-05T09:44:39.445Z,26.80
2022-08-05T09:47:12.616Z,26.70
2022-08-05T09:50:01.027Z,26.50
2022-08-05T09:52:33.798Z,26.20
2022-08-05T09:55:06.355Z,26.10
2022-08-05T09:57:58.834Z,25.90
2022-08-05T10:00:30.639Z,25.70
2022-08-05T10:02:59.440Z,25.70
2022-08-05T10:05:32.999Z,25.80
2022-08-05T10:08:35.353Z,26.00
2022-08-05T10:10:55.011Z,25.80
2022-08-05T10:13:48.047Z,26.00
2022-08-05T10:16:34.367Z,25.60
2022-08-05T10:19:11.745Z,25.50
2022-08-05T10:21:41.160Z,25.00
2022-08-05T10:24:13.480Z,24.70
2022-08-05T10:26:51.244Z,24.30
2022-08-05T10:29:24.090Z,24.10
2022-08-05T10:33:01.561Z,23.80
2022-08-05T10:35:01.404Z,23.70
2022-08-05T10:37:40.498Z,23.70
2022-08-05T10:40:28.303Z,23.60
2022-08-05T10:43:11.115Z,23.60
2022-08-05T10:45:42.028Z,23.50
2022-08-05T10:48:52.933Z,23.50
2022-08-05T10:51:29.325Z,23.60
2022-08-05T10:54:01.763Z,23.60
2022-08-05T10:56:47.139Z,23.60
2022-08-05T11:00:02.450Z,23.60
2022-08-05T11:02:37.571Z,23.70
2022-08-05T11:05:07.604Z,23.70
2022-08-05T11:08:02.438Z,23.80
2022-08-05T11:10:37.266Z,23.70
2022-08-05T11:13:08.703Z,23.80
2022-08-05T11:16:00.576Z,23.60
2022-08-05T11:18:34.087Z,23.50
2022-08-05T11:21:11.284Z,23.70
2022-08-05T11:24:02.502Z,23.70
2022-08-05T11:26:34.458Z,24.00
2022-08-05T11:29:13.116Z,24.00
2022-08-05T11:31:54.449Z,23.90
2022-08-05T11:34:51.479Z,24.00
2022-08-05T11:38:26.679Z,24.10
2022-08-05T11:41:34.545Z,24.30
2022-08-05T11:44:04.623Z,24.60
2022-08-05T11:47:09.807Z,24.60
2022-08-05T11:49:28.468Z,24.90
2022-08-05T11:51:57.917Z,24.90
2022-08-05T11:54:33.931Z,25.00
2022-08-05T11:57:08.270Z,25.00
2022-08-05T11:59:55.852Z,24.90
2022-08-05T12:02:33.167Z,25.00
2022-08-05T12:05:07.514Z,25.20
2022-08-05T12:08:09.334Z,25.30
2022-08-05T12:10:43.652Z,25.60
2022-08-05T12:13:47.456Z,25.70
2022-08-05T12:16:14.469Z,25.70
2022-08-05T12:18:49.489Z,25.60
2022-08-05T12:21:26.987Z,25.40
2022-08-05T12:24:04.972Z,25.50
2022-08-05T12:26:35.425Z,25.50
2022-08-05T12:29:09.454Z,25.50
2022-08-05T12:31:50.216Z,25.60
2022-08-05T12:34:28.199Z,25.90
2022-08-05T12:37:00.964Z,26.00
2022-08-05T12:39:37.364Z,26.10
2022-08-05T12:42:14.278Z,26.00
2022-08-05T12:44:45.993Z,26.00
2022-08-05T12:47:30.634Z,26.00
2022-08-05T12:50:03.388Z,26.00
2022-08-05T12:52:39.315Z,26.10
2022-08-05T12:55:23.826Z,25.90
2022-08-05T12:58:50.869Z,25.70
2022-08-05T13:02:00.418Z,25.70
2022-08-05T13:03:39.068Z,26.00
2022-08-05T13:06:17.366Z,26.00
2022-08-05T13:08:51.942Z,26.30
2022-08-05T13:12:02.315Z,26.60
2022-08-05T13:14:24.931Z,26.60
2022-08-05T13:17:10.853Z,26.70
2022-08-05T13:19:52.196Z,26.90
2022-08-05T13:22:28.288Z,27.00
2022-08-05T13:25:05.462Z,27.00
2022-08-05T13:27:39.787Z,27.00
2022-08-05T13:30:34.318Z,26.80
2022-08-05T13:33:00.962Z,26.60
2022-08-05T13:35:43.269Z,26.40
2022-08-05T13:38:28.182Z,26.50
2022-08-05T13:41:03.928Z,26.40
2022-08-05T13:43:44.130Z,26.30
2022-08-05T13:46:43.725Z,26.30
2022-08-05T13:49:11.450Z,26.10
2022-08-05T13:51:46.035Z,26.10
2022-08-05T13:54:21.250Z,26.20
2022-08-05T13:56:54.977Z,26.30
2022-08-05T13:59:26.836Z,26.10
2022-08-05T14:01:56.564Z,26.30
2022-08-05T14:04:50.583Z,26.30
2022-08-05T14:08:00.498Z,26.40
2022-08-05T14:10:19.236Z,26.40
2022-08-05T14:12:58.335Z,26.10
2022-08-05T14:16:04.602Z,25.80
2022-08-05T14:18:18.625Z,25.50
2022-08-05T14:20:55.016Z,25.70
2022-08-05T14:23:26.925Z,26.00
2022-08-05T14:25:59.458Z,26.00
2022-08-05T14:28:30.662Z,26.20
2022-08-05T14:31:00.630Z,26.10
2022-08-05T14:33:57.003Z,26.10
2022-08-05T14:36:21.670Z,26.20
2022-08-05T14:38:51.215Z,26.00
2022-08-05T14:41:20.044Z,25.60
2022-08-05T14:43:59.434Z,25.60
2022-08-05T14:46:35.011Z,25.60
2022-08-05T14:49:08.175Z,25.50
2022-08-05T14:51:38.161Z,25.70
2022-08-05T14:54:28.717Z,25.80
2022-08-05T14:56:56.268Z,25.80
2022-08-05T14:59:29.504Z,25.70
2022-08-05T15:01:58.848Z,25.60
2022-08-05T15:04:28.976Z,25.40
2022-08-05T15:06:58.206Z,25.30
2022-08-05T15:09:54.278Z,25.00
2022-08-05T15:12:16.851Z,25.00
2022-08-05T15:14:49.882Z,24.80
2022-08-05T15:17:46.123Z,24.80
2022-08-05T15:20:17.095Z,24.50
2022-08-05T15:22:54.330Z,24.10
2022-08-05T15:25:51.667Z,23.90
2022-08-05T15:28:14.679Z,23.80
2022-08-05T15:30:46.645Z,23.90
2022-08-05T15:33:56.807Z,23.70
2022-08-05T15:36:17.537Z,23.50
2022-08-05T15:40:58.612Z,23.60
2022-08-05T15:41:56.171Z,23.70
2022-08-05T15:44:28.022Z,23.40
2022-08-05T15:47:03.703Z,23.30
2022-08-05T15:49:52.001Z,23.20
2022-08-05T15:52:51.646Z,23.10
2022-08-05T15:55:15.586Z,23.00
2022-08-05T15:57:45.979Z,22.90
2022-08-05T16:00:25.761Z,22.80
2022-08-05T16:03:02.576Z,22.60
2022-08-05T16:05:31.448Z,22.40
2022-08-05T16:08:00.187Z,22.30
2022-08-05T16:10:28.636Z,22.40
2022-08-05T16:12:57.628Z,22.60
2022-08-05T16:15:32.756Z,22.60
2022-08-05T16:18:04.391Z,22.70
2022-08-05T16:20:37.701Z,22.70
2022-08-05T16:23:08.511Z,22.70
2022-08-05T16:25:37.729Z,22.70
2022-08-05T16:28:09.686Z,22.70
2022-08-05T16:30:39.484Z,22.50
2022-08-05T16:33:11.284Z,22.40
2022-08-05T16:35:42.934Z,22.40
2022-08-05T16:38:24.654Z,22.40
2022-08-05T16:41:00.088Z,22.30
2022-08-05T16:43:32.534Z,22.20
2022-08-05T16:46:23.971Z,22.10
2022-08-05T16:48:52.851Z,22.10
2022-08-05T16:51:21.593Z,22.20
2022-08-05T16:54:02.777Z,22.30
2022-08-05T16:56:37.069Z,22.20
2022-08-05T16:59:10.305Z,22.20
2022-08-05T17:01:53.614Z,22.20
2022-08-05T17:04:27.178Z,22.30
2022-08-05T17:07:01.129Z,22.20
2022-08-05T17:09:38.995Z,22.10
2022-08-05T17:12:22.356Z,22.20
2022-08-05T17:14:51.414Z,22.20
2022-08-05T17:17:20.017Z,22.00
2022-08-05T17:19:55.850Z,21.80
2022-08-05T17:22:26.043Z,21.70
2022-08-05T17:24:57.553Z,21.80
2022-08-05T17:27:33.599Z,21.80
2022-08-05T17:30:07.045Z,21.80
2022-08-05T17:32:42.167Z,21.60
2022-08-05T17:35:15.616Z,21.60
2022-08-05T17:37:45.482Z,21.50
2022-08-05T17:40:22.278Z,21.40
2022-08-05T17:42:53.101Z,21.30
2022-08-05T17:45:24.924Z,21.30
2022-08-05T17:47:56.375Z,21.30
2022-08-05T17:50:30.436Z,21.50
2022-08-05T17:53:01.539Z,21.30
2022-08-05T17:55:37.735Z,21.30
2022-08-05T17:58:11.303Z,21.20
2022-08-05T18:00:45.396Z,21.20
2022-08-05T18:03:48.384Z,21.10
2022-08-05T18:06:11.090Z,21.10
2022-08-05T18:08:44.937Z,20.90
2022-08-05T18:11:23.292Z,20.70
2022-08-05T18:13:55.380Z,20.60
2022-08-05T18:16:24.299Z,20.50
2022-08-05T18:18:52.711Z,20.40
2022-08-05T18:21:22.989Z,20.30
2022-08-05T18:23:55.028Z,20.10
2022-08-05T18:26:27.752Z,20.10
2022-08-05T18:28:58.632Z,20.10
2022-08-05T18:31:33.823Z,20.00
2022-08-05T18:34:06.101Z,20.00
2022-08-05T18:36:36.454Z,19.90
2022-08-05T18:39:09.587Z,19.90
2022-08-05T18:42:00.701Z,19.80
2022-08-05T18:44:35.225Z,19.70
2022-08-05T18:47:16.207Z,19.70
2022-08-05T18:50:01.996Z,19.70
2022-08-05T18:52:35.845Z,19.70
2022-08-05T18:55:10.381Z,19.60
2022-08-05T18:57:49.908Z,19.50
2022-08-05T19:00:26.975Z,19.50
2022-08-05T19:03:03.663Z,19.40
2022-08-05T19:06:12.512Z,19.40
2022-08-05T19:08:30.562Z,19.40
2022-08-05T19:11:04.708Z,19.30
2022-08-05T19:13:36.835Z,19.30
2022-08-05T19:16:24.398Z,19.30
2022-08-05T19:18:54.019Z,19.10
2022-08-05T19:21:27.392Z,19.10
2022-08-05T19:24:07.724Z,19.10
2022-08-05T19:26:54.221Z,19.00
2022-08-05T19:29:26.635Z,18.90
2022-08-05T19:32:05.004Z,18.80
2022-08-05T19:34:35.041Z,18.80
2022-08-05T19:37:03.817Z,18.70
2022-08-05T19:39:45.485Z,18.70
2022-08-05T19:42:35.371Z,18.60
2022-08-05T19:45:06.530Z,18.50
2022-08-05T19:47:37.390Z,18.40
2022-08-05T19:50:07.844Z,18.40
2022-08-05T19:52:40.991Z,18.30
2022-08-05T19:56:15.639Z,18.30
2022-08-05T19:58:19.499Z,18.20
2022-08-05T20:00:48.820Z,18.20
2022-08-05T20:03:17.288Z,18.10
2022-08-05T20:05:51.452Z,18.10
2022-08-05T20:08:20.689Z,18.10
2022-08-05T20:10:55.195Z,18.00
2022-08-05T20:13:54.534Z,18.00
2022-08-05T20:16:12.201Z,18.00
2022-08-05T20:18:41.026Z,18.00
2022-08-05T20:21:10.426Z,17.90
2022-08-05T20:23:50.293Z,17.90
2022-08-05T20:26:23.427Z,17.90
2022-08-05T20:28:55.717Z,17.80
2022-08-05T20:31:28.776Z,17.80
2022-08-05T20:34:05.616Z,17.70
2022-08-05T20:36:36.906Z,17.70
2022-08-05T20:39:07.705Z,17.70
2022-08-05T20:41:45.084Z,17.70
2022-08-05T20:44:16.900Z,17.60
2022-08-05T20:46:46.923Z,17.60
2022-08-05T20:49:18.455Z,17.50
2022-08-05T20:51:53.397Z,17.40
2022-08-05T20:54:22.560Z,17.40
2022-08-05T20:56:54.627Z,17.40
2022-08-05T20:59:26.418Z,17.40
2022-08-05T21:01:58.071Z,17.30
2022-08-05T21:04:28.077Z,17.30
2022-08-05T21:06:57.503Z,17.40
2022-08-05T21:09:26.484Z,17.30
2022-08-05T21:12:09.701Z,17.30
2022-08-05T21:14:40.007Z,17.30
2022-08-05T21:17:08.424Z,17.20
2022-08-05T21:19:46.849Z,17.20
2022-08-05T21:22:17.805Z,17.20
2022-08-05T21:24:51.513Z,17.10
2022-08-05T21:27:25.232Z,17.00
2022-08-05T21:29:56.427Z,17.00
2022-08-05T21:32:27.231Z,16.90
2022-08-05T21:35:08.974Z,17.00
2022-08-05T21:37:47.185Z,16.80
2022-08-05T21:40:16.756Z,16.80
2022-08-05T21:42:47.406Z,16.80
2022-08-05T21:45:24.967Z,16.70
2022-08-05T21:47:57.894Z,16.60
2022-08-05T21:50:26.880Z,16.60
2022-08-05T21:52:58.785Z,16.60
2022-08-05T21:56:01.061Z,16.60
2022-08-05T21:58:24.853Z,16.50
2022-08-05T22:01:00.871Z,16.40
2022-08-05T22:03:51.620Z,16.40
2022-08-05T22:06:22.749Z,16.40
2022-08-05T22:09:13.160Z,16.30
2022-08-05T22:11:42.737Z,16.30
2022-08-05T22:14:35.161Z,16.20
2022-08-05T22:17:05.053Z,16.20
2022-08-05T22:20:00.724Z,16.20
2022-08-05T22:22:27.959Z,16.10
2022-08-05T22:25:18.172Z,16.10
2022-08-05T22:28:10.722Z,16.10
2022-08-05T22:30:44.230Z,16.00
2022-08-05T22:33:57.849Z,16.00
2022-08-05T22:36:15.577Z,16.00
2022-08-05T22:38:47.945Z,15.90
2022-08-05T22:42:05.711Z,15.90
2022-08-05T22:44:09.382Z,15.90
2022-08-05T22:46:42.424Z,15.90
2022-08-05T22:50:17.672Z,15.80
2022-08-05T22:52:07.633Z,15.80
2022-08-05T22:54:48.960Z,15.80
2022-08-05T22:57:17.526Z,15.80
2022-08-05T22:59:51.924Z,15.70
2022-08-05T23:02:29.463Z,15.70
2022-08-05T23:05:01.985Z,15.70
2022-08-05T23:07:43.787Z,15.60
2022-08-05T23:10:14.328Z,15.60
2022-08-05T23:12:43.994Z,15.70
2022-08-05T23:15:13.182Z,15.80
2022-08-05T23:18:01.402Z,15.60
2022-08-05T23:20:32.480Z,15.50
2022-08-05T23:23:06.025Z,15.50
2022-08-05T23:25:54.723Z,15.40
2022-08-05T23:28:28.545Z,15.40
2022-08-05T23:31:03.707Z,15.30
2022-08-05T23:34:03.191Z,15.40
2022-08-05T23:36:39.710Z,15.30
2022-08-05T23:39:17.080Z,15.30
2022-08-05T23:41:52.434Z,15.30
2022-08-05T23:44:24.980Z,15.20
2022-08-05T23:46:56.176Z,15.20
2022-08-05T23:49:35.702Z,15.10
2022-08-05T23:52:25.277Z,15.10
2022-08-05T23:54:54.904Z,15.00
2022-08-05T23:57:28.017Z,14.90
